Questo sito utilizza cookie tecnici e di profilazione, propri e di terze parti, per le sue funzionalità e per inviarti pubblicità e servizi in linea con le tue preferenze. Se vuoi saperne di più o negare il consenso a tutti o ad alcuni cookie clicca qui. Chiudendo questo banner, scorrendo questa pagina o cliccando qualunque suo elemento acconsenti all'uso dei cookie.


Stazioni sci con più impianti aperti

Tutte le stazioni sci ordinate per numero di impianti aperti. Prima di scegliere il comprensorio per una giornata sulla neve controlla prima lo stato di apertura delle funivie, seggiovie e skilift. I dati sono desunti dal bollettino neve aggiornato dalle singole località sciistiche. Il dato può variare anche repentinamente a causa delle condizioni meteo o di innevamento che possono determinare una chiusura anche temporanea degli impianti di risalita.
Località Min Max Impianti Km Piste Tipo Neve Data
Dolomiti Superski 30 80 410 su 479 0 su 0 Primaverile 25/03/2017
Torgon 0 10 191 su 197 597 su 650 Neve dura 25/03/2017
Morgins 30 50 187 su 197 597 su 650 compatta 25/03/2017
Les Trois Vallees 110 205 135 su 159 585 su 600 primavera 25/03/2017
Arlberg 60 210 85 su 87 272 su 305 neve aderente 25/03/2017
Lech in Arlberg 70 155 85 su 87 272 su 305 neve aderente 25/03/2017
St. Anton in Arlberg 60 210 85 su 87 272 su 305 neve aderente 25/03/2017
Ortisei 10 30 78 su 78 172 su 175 Primaverile 22/03/2017
Santa Cristina 10 30 78 su 78 172 su 175 Primaverile 22/03/2017
Selva di Val Gardena 10 30 78 su 78 172 su 175 Primaverile 22/03/2017
Val Gardena 10 30 78 su 78 172 su 175 Primaverile 22/03/2017
Les quatre vallees 30 205 68 su 82 323 su 412 polverosa 25/03/2017
Nendaz 5 205 68 su 82 323 su 412 polverosa 25/03/2017
Verbier 30 205 68 su 82 323 su 412 polverosa 25/03/2017
Veysonnaz 5 205 68 su 82 323 su 412 polverosa 25/03/2017
La Plagne 10 210 66 su 75 0 su 0 Neve farinosa 25/03/2017
Megeve 20 90 65 su 87 302 su 445 Neve humida 25/03/2017
Skiwelt Wilder Kaiser - Brixental 40 30 63 su 90 188 su 280 Farinosa 24/03/2017
Alpe d'Huez 100 200 62 su 70 209 su 250 primavera 25/03/2017
Chamonix 0 250 59 su 69 132 su 163 primavera 25/03/2017
Cesana Torinese 30 90 56 su 70 212 su 320 Farinosa 24/03/2017
Claviere 30 90 56 su 70 212 su 320 Farinosa 24/03/2017
Sansicario 30 90 56 su 70 212 su 320 Farinosa 24/03/2017
Sauze d'Oulx 30 90 56 su 70 212 su 320 Farinosa 24/03/2017
Sestriere 30 90 56 su 70 212 su 320 Farinosa 24/03/2017
Via Lattea 30 90 56 su 70 212 su 320 Farinosa 24/03/2017
Alta Badia 5 30 50 su 55 120 su 130 Primaverile 25/03/2017
Colfosco 5 30 50 su 55 120 su 130 Primaverile 25/03/2017
Corvara 5 30 50 su 55 120 su 130 Primaverile 25/03/2017
La Villa 5 30 50 su 55 120 su 130 Primaverile 25/03/2017
Pedraces 5 30 50 su 55 120 su 130 Primaverile 25/03/2017
San Cassiano 5 30 50 su 55 120 su 130 Primaverile 25/03/2017
Serre Chevalier 20 140 50 su 62 191 su 250 primavera 25/03/2017
Courchevel 85 166 49 su 54 0 su 0 Neve nouva 25/03/2017
Davos 37 160 48 su 55 220 su 279 compatta 25/03/2017
Kitzbuehel 56 100 47 su 58 140 su 170 Farinosa 24/03/2017
Ischgl 0 110 44 su 45 218 su 238 Compatta 24/03/2017
Campitello di Fassa - Col Rodella 15 100 43 su 47 61 su 79 Compatta 25/03/2017
Canazei 15 100 43 su 47 61 su 79 Compatta 25/03/2017
Val di Fassa 15 100 43 su 47 61 su 79 Compatta 25/03/2017
Les Deux Alpes 40 180 39 su 55 0 su 0 Neve farinosa 25/03/2017
Arosa 80 150 38 su 43 162 su 225 primaverile 25/03/2017
Lenzerheide 20 100 38 su 43 162 su 225 polverosa 25/03/2017
Zermatt 0 175 38 su 52 270 su 360 compatta 25/03/2017
Adelboden 0 100 37 su 55 142 su 185 primaverile 25/03/2017
Les Arcs 0 206 37 su 54 128 su 200 Neve farinosa 25/03/2017
Bettmeralp 60 143 35 su 36 85 su 104 compatta 25/03/2017
Fiescheralp 60 143 35 su 36 85 su 104 compatta 25/03/2017
Riederalp 60 143 35 su 36 85 su 104 compatta 25/03/2017
Avoriaz 70 160 32 su 34 0 su 0 primavera 25/03/2017
Alpe Cermis 55 80 31 su 36 85 su 91 Primaverile 25/03/2017
Cortina d'Ampezzo 15 50 31 su 41 95 su 120 Primaverile 25/03/2017
Falzarego - 5 Torri 15 50 31 su 41 95 su 120 Primaverile 25/03/2017
Obereggen 55 80 31 su 36 85 su 91 Primaverile 25/03/2017
Pampeago 55 80 31 su 36 85 su 91 Primaverile 25/03/2017
Predazzo 55 80 31 su 36 85 su 91 Primaverile 25/03/2017
Val di Fiemme 55 80 31 su 36 85 su 91 Primaverile 25/03/2017
Livigno 14 106 30 su 30 115 su 115 Compatta 25/03/2017
Orelle 110 205 30 su 30 133 su 140 Neve nouva 25/03/2017
Soelden 20 274 30 su 33 142 su 146 Neve vecchia 25/03/2017
Val Thorens 110 205 30 su 30 133 su 140 Neve nouva 25/03/2017
Les Menuires 32 166 29 su 34 42 su 160 Neve farinosa 25/03/2017
Nassfeld Pramollo 20 100 29 su 30 105 su 110 Compatta 24/03/2017
Adamello Ski 50 150 28 su 28 95 su 100 Compatta 19/03/2017
Brunico 20 55 28 su 35 109 su 119 Primaverile 25/03/2017
Ghiacciaio Presena 50 150 28 su 28 95 su 100 Compatta 19/03/2017
Kronplatz - Plan De Corones 20 55 28 su 35 109 su 119 Primaverile 25/03/2017
Passo del Tonale 50 150 28 su 28 95 su 100 Compatta 19/03/2017
Ponte di Legno 50 150 28 su 28 95 su 100 Compatta 19/03/2017
San Martino in Badia 20 55 28 su 35 109 su 119 Primaverile 25/03/2017
San Vigilio 20 55 28 su 35 109 su 119 Primaverile 25/03/2017
Temu 50 150 28 su 28 95 su 100 Compatta 19/03/2017
Valdaora 20 55 28 su 35 109 su 119 Primaverile 25/03/2017
Meribel 35 166 27 su 41 0 su 0 primavera 25/03/2017
Alta Pusteria 20 60 25 su 35 85 su 93 Compatta 25/03/2017
Croda Rossa - Sesto - Moso 20 60 25 su 35 85 su 93 Compatta 25/03/2017
Falcade 0 50 25 su 25 95 su 100 Primaverile 25/03/2017
Falera 10 225 25 su 28 148 su 224 polverosa 25/03/2017
Flims 10 225 25 su 28 148 su 224 polverosa 25/03/2017
Folgaria 10 35 25 su 27 60 su 74 Primaverile 19/03/2017
Laax 10 225 25 su 28 148 su 224 polverosa 25/03/2017
Moena - Alpe Lusia 0 50 25 su 25 95 su 100 Primaverile 25/03/2017
Monte Elmo - Sesto Pusteria 20 60 25 su 35 85 su 93 Compatta 25/03/2017
Passo San Pellegrino 0 50 25 su 25 95 su 100 Primaverile 25/03/2017
Tre Cime Dolomiti 20 60 25 su 35 85 su 93 Compatta 25/03/2017
Tre Valli 0 50 25 su 25 95 su 100 Primaverile 25/03/2017
Folgarida 40 120 24 su 25 58 su 64 Non pervenuta 24/03/2017
Marilleva 40 120 24 su 25 58 su 64 Non pervenuta 24/03/2017
Stubai 20 200 24 su 26 61 su 64 neve aderente 25/03/2017
Celerina 6 102 23 su 23 120 su 163 polverosa 25/03/2017
Sankt Moritz 6 102 23 su 23 120 su 163 polverosa 25/03/2017
Ski Juwel Alpbachtal Wildschonau 35 80 23 su 46 69 su 109 Bagnata 24/03/2017
Rio Pusteria 30 92 22 su 26 86 su 95 Primaverile 25/03/2017
Valle Isarco 30 92 22 su 26 86 su 95 Primaverile 25/03/2017
Hintertux 0 0 21 su 22 40 su 60 23/03/2017
Madonna di Campiglio 0 90 20 su 21 53 su 60 Non pervenuta 20/03/2017
Rivisondoli 70 140 20 su 23 61 su 83 Compatta 23/03/2017
Roccaraso 70 140 20 su 23 61 su 83 Compatta 23/03/2017
Alleghe 30 80 19 su 26 64 su 80 Primaverile 25/03/2017
Alpe di Siusi 5 40 19 su 20 60 su 60 Primaverile 25/03/2017
Arabba 44 72 19 su 22 43 su 43 Primaverile 25/03/2017
Selva di Cadore 30 80 19 su 26 64 su 80 Primaverile 25/03/2017
Skicivetta 30 80 19 su 26 64 su 80 Primaverile 25/03/2017
Wengen 0 90 19 su 27 155 su 155 primaverile 25/03/2017
Zoldo Alto 30 80 19 su 26 64 su 80 Primaverile 25/03/2017
Courmayeur 0 155 18 su 18 37,03 su 41 Compatta 25/03/2017
San Martino di Castrozza 20 30 18 su 24 49 su 62 Non pervenuta 16/03/2017
Andalo - Fai della Paganella 5 90 16 su 17 32 su 35 Non pervenuta 22/03/2017
Bardonecchia 20 160 16 su 23 60 su 100 Farinosa 24/03/2017
Breuil Cervinia 60 195 15 su 15 98 su 98 Farinosa 25/03/2017
Seefeld 0 40 15 su 35 19 su 27 Primaverile 24/03/2017
Abetone 20 50 14 su 17 35 su 50 Primaverile 25/03/2017
Carezza - Passo Costalunga 25 35 14 su 15 34 su 41 Primaverile 25/03/2017
Saas Fee 28 220 14 su 22 65 su 100 compatta 25/03/2017
Val d'Isere 0 198 14 su 40 144 su 150 Neve farinosa 25/03/2017
Andermatt 10 400 13 su 22 80 su 120 polverosa 25/03/2017
Bormio 10 135 13 su 15 44 su 50 Primaverile 20/03/2017
Corvatsch 43 68 13 su 14 99 su 120 nessuna info 25/03/2017
Espace San Bernardo 170 220 13 su 16 144 su 160 Compatta 25/03/2017
La Thuile 170 220 13 su 16 144 su 160 Compatta 25/03/2017
Madesimo 50 200 13 su 13 53 su 53 Primaverile 25/03/2017
Campo Felice 90 200 12 su 14 32 su 38 Compatta 15/03/2017
Kuhtai 61 79 12 su 12 40 su 41 Primaverile 25/03/2017
Leukerbad 30 140 11 su 15 19 su 55 nessuna info 25/03/2017
Pila 50 200 11 su 15 46,05 su 70 Compatta 25/03/2017
Aprica 30 120 10 su 16 26 su 50 Primaverile 25/03/2017
Champoluc 50 200 10 su 10 NP su NP spring 25/03/2017
Chiesa Valmalenco 80 100 10 su 10 57 su 60 Compatta 24/03/2017
Cimone 10 30 10 su 21 20 su 50 Compatta 23/03/2017
Piani di Bobbio - Valtorta 20 40 10 su 11 32 su 35 Farinosa 06/03/2017
Ravascletto - Monte Zoncolan 30 60 10 su 11 21 su 22 Primaverile 25/03/2017
Santa Caterina Valfurva 60 130 10 su 10 35 su 35 Farinosa 25/03/2017
Ovindoli 50 150 9 su 11 19 su 30 Compatta 24/03/2017
Tarvisio 40 116 9 su 15 10 su 25 Compatta 25/03/2017
Valtournenche 30 70 9 su 9 45,76 su 52 Fair 25/03/2017
Champorcher 40 150 7 su 7 11 su 21 spring 25/03/2017
Limone Piemonte 10 124 7 su 17 22 su 80 Farinosa 25/03/2017
Macugnaga Monterosa 10 260 7 su 7 15 su 22 Compatta 25/03/2017
Montecampione 20 50 7 su 10 10 su 30 Compatta 03/03/2017
Passo Lanciano - Majelletta 110 190 7 su 7 12 su 12 Compatta 23/03/2017
Piancavallo 20 40 7 su 9 13 su 17 Compatta 23/03/2017
Plose - Bressanone 30 92 7 su 10 86 su 95 Primaverile 25/03/2017
Tignes 78 200 7 su 44 0 su 0 Neve farinosa 25/03/2017
Airolo 0 160 6 su 8 16 su 30 primaverile 25/03/2017
Corno alle Scale 20 40 6 su 7 32 su 36 Compatta 17/03/2017
Pozza di Fassa 15 50 6 su 7 13 su 13 Non pervenuta 24/03/2017
San Domenico 20 250 6 su 7 20 su 32 Compatta 25/03/2017
Alba di Canazei - Ciampac 15 45 5 su 5 9 su 9 Non pervenuta 24/03/2017
Chamois 0 30 5 su 5 9,99 su 15 Fair 25/03/2017
Diavolezza - Bernina 2 127 5 su 7 9 su 9 nessuna info 25/03/2017
Gressoney-La-Trinite' 40 190 5 su 11 NP su NP spring 25/03/2017
Lizzola 15 100 5 su 5 20 su 22 Compatta 17/03/2017
Prato Nevoso 10 50 5 su 9 10 su 36,7 Compatta 24/03/2017
Sella Nevea 40 200 5 su 5 10 su 10 Compatta 25/03/2017
Torgnon 0 30 5 su 6 16,71 su 25 Fair 24/03/2017
Val di Rhemes 70 90 5 su 5 5,56 su 6 Fair 25/03/2017
Vigo di Fassa 15 50 5 su 5 11 su 13 Non pervenuta 24/03/2017
Alpe di Mera 2 70 4 su 5 10 su 30 Farinosa 04/03/2017
Bovec 40 200 4 su 11 10 su 10 primavera 25/03/2017
Cogne 20 160 4 su 4 5,28 su 7 Fair 25/03/2017
Monte Bondone 30 30 4 su 4 17 su 20 neve aderente 25/03/2017
Pejo 35 140 4 su 6 16 su 20 Non pervenuta 16/03/2017
Prali 100 185 4 su 4 25 su 25 Compatta 11/03/2017
Sappada 30 30 4 su 10 7.5 su 16.65 Programmata 17/03/2017
Alagna Valsesia 10 190 3 su 6 5 su 15 spring 25/03/2017
Altopiano di Asiago 0 30 3 su 40 8 su 67 Primaverile 19/03/2017
Artesina 30 90 3 su 11 10 su 58 Primaverile 04/03/2017
Campo Imperatore 60 150 3 su 3 10 su 10 Compatta 23/03/2017
Cerreto Laghi 10 40 3 su 3 12 su 15 Compatta 01/03/2017
Ladurns - Colle Isarco 30 100 3 su 3 15 su 15 Farinosa 20/03/2017
Piazzatorre 15 60 3 su 3 10 su 15 Compatta 03/03/2017
Camigliatello Silano 30 50 2 su 2 5 su 5 Compatta 10/03/2017
Campo di Giove 60 150 2 su 3 15 su 22 Compatta 23/03/2017
Casone di Profecchia 5 10 2 su 3 2.2 su 3.2 Programmata 18/03/2017
Mottarone 5 10 2 su 5 0 su 18 Programmata 14/03/2017
Ollomont 25 30 2 su 2 0,4 su 0,8 Fair 09/03/2017
Passo Mendola - Ruffre' 50 50 2 su 2 2 su 2 Non pervenuta 16/03/2017
Pian delle Betulle 10 20 2 su 4 0.5 su 12 Primaverile 16/03/2017
San Giacomo - Monte Piselli 120 160 2 su 3 6 su 10 Compatta 23/03/2017
Valgrisenche 15 25 2 su 2 2,46 su 6 Fair 25/03/2017
Antagnod 0 0 0 su 4 NP su NP 24/03/2017
Argentera 20 120 0 su 4 np su 20 Primaverile 24/03/2017
Brusson 0 0 0 su 4 0 su 17 24/03/2017
Campocatino 20 60 0 su 4 0 su 15.5 NP 19/03/2017
Cappadocia - Campo Rotondo 0 0 0 su 2 0 su 9 NP 23/03/2017
Careggine 0 0 0 su 2 0 su 5 NP 18/03/2017
Crissolo - Pian Regina 0 0 0 su 4 0 su 20 Primaverile 24/03/2017
Cutigliano - Doganaccia 0 0 0 su 5 0 su 15 Primaverile 25/03/2017
Domobianca 0 0 0 su 8 0 su 21 NP 23/03/2017
Entracque 0 0 0 su 3 0 su 8 Primaverile 17/03/2017
Forni di Sopra 20 40 0 su 8 0 su 12 NP 24/03/2017
Frabosa Soprana 0 0 0 su 7 0 su 30 Compatta 24/03/2017
Gressoney Saint Jean 0 0 0 su 3 NP su NP 24/03/2017
Lavarone - Luserna 0 0 0 su 13 0 su 30 Non pervenuta 20/03/2017
Lurisia Monte Pigna 0 0 0 su 4 0 su 20 Primaverile 24/03/2017
Monte Amiata 0 30 0 su 8 0 su 10 Primaverile 20/03/2017
Pacentro - Passo San Leonardo 60 170 0 su 2 0 su 7 Compatta 23/03/2017
Panarotta 0 0 0 su 4 0 su 18 Non pervenuta 22/03/2017
Paradiski 45 152 0 su 96 0 su 425 NP 24/02/2017
Peisey - Vallandry 45 152 0 su 96 0 su 425 NP 24/02/2017
Pescasseroli 0 0 0 su 6 0 su 20 NP 23/03/2017
Pescocostanzo 20 50 0 su 4 0 su 10 NP 23/03/2017
Pian Mune' 10 50 0 su 4 0 su 16 Compatta 28/02/2017
Polsa - San Valentino 0 0 0 su 9 0 su 23 Non pervenuta 19/03/2017
Prati di Tivo 50 140 0 su 4 0 su 14 Primaverile 22/03/2017
Prato Selva 0 0 0 su 3 0 su 11 NP 23/03/2017
Rucaski 20 50 0 su 3 0 su 6 Primaverile 24/03/2017
Sampeyre 0 0 0 su 4 0 su 35 Farinosa 17/03/2017
San Giacomo di Roburent 0 0 0 su 9 0 su 35 NP 14/03/2017
Sauris di Sopra 0 0 0 su 3 0 su 2,5 NP 24/03/2017
Scanno - Passo Godi 10 20 0 su 7 0 su 17 Primaverile 23/03/2017
Valsavarenche 30 60 0 su 1 0 su 1,7 Fair 25/03/2017
Viola Saint Gree 0 0 0 su 2 0 su 7.6 NP 10/03/2017
Aussois 0 0 NP su 9 NP su 55 NP 15/04/2016
Bolognola - Pintura di Bolognola 0 0 NP su 0 NP su 0 NP 02/01/2016
Bremboski 0 0 NP su 17 NP su 50 NP 14/01/2017
Caldirola 0 0 NP su 1 NP su 12 NP 06/02/2017
Campitello Matese 0 0 NP su 5 NP su NP 14/04/2015
Canosio - Pra La Grangia 0 0 NP su 2 NP su 4 NP 15/04/2016
Capracotta 0 0 NP su 1 NP su NP 14/04/2015
Carona 0 0 NP su 10 NP su 30 NP 01/02/2017
Chiomonte - Pian del Frais 0 0 NP su 6 NP su 28 NP 08/02/2017
Col de Joux 0 0 NP su 5 NP su 4,5 NP 15/01/2017
Colere 0 0 NP su 4 NP su 25 NP 04/02/2017
Corno del Renon 0 0 NP su 5 NP su 15 NP 29/12/2016
Crevacol 0 0 NP su 3 NP su 20 NP 16/01/2017
Febbio 0 0 NP su 3 NP su 10 NP 14/04/2016
Finkenberg 0 0 NP su 57 NP su 135 NP 25/04/2016
Foppolo 0 0 NP su 10 NP su 30 NP 01/02/2017
Forca Canapine 0 0 NP su 3 NP su 13 NP 30/12/2015
Gstaad 0 0 NP su 53 NP su 220 NP 19/01/2017
Kals-Matrei 0 0 NP su 15 NP su 37 NP 16/04/2016
Klausberg 0 0 NP su 12 NP su 32 NP 29/12/2016
Lagorai - Passo Brocon 0 0 NP su 5 NP su 12 NP 31/01/2017
Leonessa Campo Stella 0 0 NP su 2 NP su 14 NP 06/02/2015
Les Portes du Soleil 0 0 NP su 201 NP su 650 NP 02/12/2016
Maranza - Gitschberg 0 0 NP su 16 NP su 51 NP 29/12/2016
Mayrhofen Zillertal 0 0 NP su 57 NP su 135 NP 25/04/2016
Merano 2000 0 0 NP su 9 NP su 40 NP 19/12/2016
Monte Cavallo Vipiteno 0 0 NP su 3 NP su 17 NP 29/12/2016
Monte Pora 0 0 NP su 15 NP su 30 NP 13/01/2017
Morzine 0 0 NP su 201 NP su 650 NP 02/12/2016
Passo dello Stelvio 0 0 NP su 6 NP su 12 NP 10/08/2015
Piane di Mocogno 0 0 NP su 6 NP su 7 NP 14/04/2016
Pinzolo 0 0 NP su 13 NP su 33 NP 11/02/2017
Pitztal 0 0 NP su 12 NP su 39 NP 13/01/2017
Plan Passiria - Pfelders 0 0 NP su 4 NP su 18 NP 29/12/2016
Prato Spilla 0 0 NP su 3 NP su 10 NP 14/04/2016
Presolana 0 0 NP su 15 NP su 30 NP 13/01/2017
Racines - Passo Giovo 0 0 NP su 8 NP su 20 NP 29/12/2016
Saint Nicolas 0 0 NP su 0 NP su 8,6 NP 16/01/2017
San Candido - Monte Baranci 0 0 NP su 5 NP su 11 NP 23/12/2016
San Martino - Val Sarentino 0 0 NP su 4 NP su 22 NP 29/12/2016
San Simone 0 0 NP su 6 NP su 20 NP 07/04/2016
Sant'Annapelago 0 0 NP su 3 NP su 12 NP 14/04/2016
Schia 0 0 NP su 3 NP su 15 NP 14/04/2016
Siviez 0 0 NP su 82 NP su 412 NP 31/05/2014
Ski Zillertal 3000 0 0 NP su 57 NP su 135 NP 25/04/2016
Solda - Sulden 0 0 NP su 16 NP su 43 NP 21/12/2016
Speikboden - Campo Tures 0 0 NP su 7 NP su 19 NP 29/12/2016
Trafoi 0 0 NP su 5 NP su 8 NP 25/10/2016
Tux 0 0 NP su 57 NP su 135 NP 25/04/2016
Val Ferret 0 0 NP su 0 NP su 16 NP 15/01/2017
Val Senales 0 0 NP su 12 NP su 22 NP 19/12/2016
Valles - Jochtal 0 0 NP su 16 NP su 51 NP 29/12/2016
Watles 0 0 NP su 3 NP su 14 NP 28/12/2016
Zum Zeri - Passo Due Santi 0 0 NP su 3 NP su 10 NP 02/01/2016

SCEGLI LA LOCALITA'

Località più nevose
Località con piu' impianti aperti
CERCA SKIAREA PIU' ADATTA A TE sci e terme SCONTI SKIPASS

ARTICOLI SPONSORIZZATI

CONFRONTA PREZZI SKIPASS E IMPIANTI

LOCALITA' CONSIGLIATE A

SCIATORI PRINCIPIANTI SCIATORI INTERMEDI SCIATORI ESPERTI FREERIDE FAMIGLIE GIOVANI LOCALITÀ SENZA AUTO         

APPS PER SCIARE

GUIDA E DOWNLOAD TUA VELOCITÀ E PERCORSO SCARICA APP E VINCI WEEKEND        

PRENOTAZIONI ON LINE

HOTEL NOLEGGIA SCI E ATTREZZATURA ASSICURAZIONE SCI

MULTIMEDIA

FOTO VIDEO
© 1999-2015 Dovesciare.it - P.I. 03237250133